createdAt,value
2022-09-06T00:02:26.167Z,100838.60
2022-09-06T00:05:33.128Z,100848.80
2022-09-06T00:08:36.493Z,100853.20
2022-09-06T00:11:48.347Z,100846.40
2022-09-06T00:15:47.112Z,100846.20
2022-09-06T00:18:56.363Z,100842.20
2022-09-06T00:22:29.666Z,100847.00
2022-09-06T00:25:48.331Z,100843.00
2022-09-06T00:29:35.012Z,100831.20
2022-09-06T00:32:48.169Z,100831.80
2022-09-06T00:36:41.817Z,100822.00
2022-09-06T00:40:32.688Z,100824.80
2022-09-06T00:43:47.569Z,100823.80
2022-09-06T00:46:55.717Z,100817.00
2022-09-06T00:50:06.165Z,100824.60
2022-09-06T00:53:28.897Z,100837.60
2022-09-06T00:56:30.876Z,100836.40
2022-09-06T01:00:01.052Z,100829.20
2022-09-06T01:03:02.853Z,100844.60
2022-09-06T01:06:09.737Z,100845.80
2022-09-06T01:09:37.967Z,100838.20
2022-09-06T01:13:52.007Z,100836.60
2022-09-06T01:20:52.790Z,100822.60
2022-09-06T01:32:17.529Z,100836.20
2022-09-06T01:35:51.981Z,100836.60
2022-09-06T01:39:50.046Z,100838.00
2022-09-06T01:43:46.529Z,100838.00
2022-09-06T01:47:36.361Z,100837.60
2022-09-06T01:51:30.354Z,100840.80
2022-09-06T01:58:36.712Z,100828.80
2022-09-06T02:01:47.001Z,100832.40
2022-09-06T02:04:54.055Z,100832.20
2022-09-06T02:07:57.137Z,100831.00
2022-09-06T02:11:05.696Z,100826.20
2022-09-06T02:14:59.759Z,100829.80
2022-09-06T02:18:36.241Z,100829.20
2022-09-06T02:21:44.016Z,100820.60
2022-09-06T02:25:33.857Z,100807.80
2022-09-06T02:29:23.721Z,100818.80
2022-09-06T02:32:35.098Z,100818.40
2022-09-06T02:35:47.037Z,100818.60
2022-09-06T02:38:54.014Z,100824.60
2022-09-06T02:42:20.723Z,100825.60
2022-09-06T02:48:33.886Z,100827.80
2022-09-06T02:52:04.954Z,100818.80
2022-09-06T02:55:09.938Z,100816.80
2022-09-06T02:58:16.978Z,100809.80
2022-09-06T03:01:23.053Z,100806.00
2022-09-06T03:04:31.856Z,100804.60
2022-09-06T03:07:39.985Z,100801.40
2022-09-06T03:11:26.227Z,100801.80
2022-09-06T03:14:27.650Z,100795.60
2022-09-06T03:17:30.050Z,100794.80
2022-09-06T03:20:37.345Z,100792.40
2022-09-06T03:24:30.741Z,100795.20
2022-09-06T03:27:40.954Z,100801.00
2022-09-06T03:31:45.578Z,100803.80
2022-09-06T03:34:55.235Z,100801.00
2022-09-06T03:38:02.441Z,100794.60
2022-09-06T03:41:09.091Z,100789.80
2022-09-06T03:44:18.036Z,100797.00
2022-09-06T03:48:07.940Z,100793.80
2022-09-06T03:52:10.090Z,100787.00
2022-09-06T03:59:28.753Z,100789.00
2022-09-06T04:06:27.597Z,100776.40
2022-09-06T04:09:48.372Z,100770.00
2022-09-06T04:13:25.643Z,100762.20
2022-09-06T04:16:57.036Z,100756.40
2022-09-06T04:20:46.220Z,100758.00
2022-09-06T04:24:46.713Z,100764.80
2022-09-06T04:27:59.700Z,100774.80
2022-09-06T04:31:10.480Z,100777.20
2022-09-06T04:34:43.336Z,100778.60
2022-09-06T04:37:49.102Z,100783.80
2022-09-06T04:40:48.479Z,100790.00
2022-09-06T04:43:58.246Z,100791.80
2022-09-06T04:47:07.503Z,100792.00
2022-09-06T04:50:17.755Z,100783.20
2022-09-06T04:53:53.947Z,100785.00
2022-09-06T04:57:07.093Z,100780.40
2022-09-06T05:02:51.230Z,100782.20
2022-09-06T05:05:21.341Z,100780.20
2022-09-06T05:07:55.360Z,100781.20
2022-09-06T05:10:25.140Z,100787.60
2022-09-06T05:12:55.400Z,100789.40
2022-09-06T05:15:24.920Z,100795.40
2022-09-06T05:17:53.604Z,100802.40
2022-09-06T05:20:22.481Z,100798.60
2022-09-06T05:22:57.321Z,100798.40
2022-09-06T05:25:26.519Z,100799.60
2022-09-06T05:27:55.529Z,100803.20
2022-09-06T05:30:24.487Z,100801.40
2022-09-06T05:32:53.400Z,100803.00
2022-09-06T05:35:22.600Z,100807.20
2022-09-06T05:37:51.480Z,100809.20
2022-09-06T05:40:20.380Z,100804.60
2022-09-06T05:42:49.261Z,100806.00
2022-09-06T05:45:18.365Z,100804.00
2022-09-06T05:47:47.360Z,100802.60
2022-09-06T05:50:16.440Z,100801.00
2022-09-06T05:52:45.460Z,100803.80
2022-09-06T05:55:14.441Z,100804.60
2022-09-06T05:57:43.220Z,100806.00
2022-09-06T06:00:13.300Z,100806.40
2022-09-06T06:02:42.515Z,100807.00
2022-09-06T06:05:11.440Z,100807.20
2022-09-06T06:07:40.317Z,100808.80
2022-09-06T06:10:09.800Z,100812.40
2022-09-06T06:12:38.621Z,100811.80
2022-09-06T06:15:08.141Z,100812.40
2022-09-06T06:17:36.930Z,100816.40
2022-09-06T06:20:07.940Z,100815.60
2022-09-06T06:22:36.639Z,100814.80
2022-09-06T06:25:06.040Z,100812.60
2022-09-06T06:27:35.780Z,100812.00
2022-09-06T06:30:05.440Z,100811.60
2022-09-06T06:32:34.368Z,100804.40
2022-09-06T06:35:03.168Z,100799.40
2022-09-06T06:37:34.180Z,100801.20
2022-09-06T06:40:04.268Z,100795.00
2022-09-06T06:42:33.005Z,100793.00
2022-09-06T06:45:01.887Z,100796.60
2022-09-06T06:47:31.087Z,100793.80
2022-09-06T06:49:59.984Z,100793.80
2022-09-06T06:52:28.987Z,100791.20
2022-09-06T06:54:58.048Z,100787.20
2022-09-06T06:57:27.160Z,100782.80
2022-09-06T06:59:55.839Z,100785.00
2022-09-06T07:02:25.036Z,100789.60
2022-09-06T07:04:54.049Z,100790.00
2022-09-06T07:07:30.723Z,100793.60
2022-09-06T07:12:49.281Z,100798.40
2022-09-06T07:15:19.146Z,100797.80
2022-09-06T07:17:47.886Z,100799.20
2022-09-06T07:20:16.788Z,100803.00
2022-09-06T07:22:45.785Z,100805.60
2022-09-06T07:25:20.564Z,100805.20
2022-09-06T07:27:58.483Z,100803.60
2022-09-06T07:30:38.180Z,100812.80
2022-09-06T07:33:07.640Z,100817.20
2022-09-06T07:35:36.759Z,100819.40
2022-09-06T07:38:05.543Z,100828.20
2022-09-06T07:40:34.543Z,100827.20
2022-09-06T07:43:03.426Z,100829.20
2022-09-06T07:45:32.423Z,100833.00
2022-09-06T07:48:01.922Z,100835.60
2022-09-06T07:50:48.458Z,100828.60
2022-09-06T07:53:26.351Z,100827.80
2022-09-06T07:56:01.909Z,100824.00
2022-09-06T07:58:32.000Z,100820.80
2022-09-06T08:01:37.140Z,100820.20
2022-09-06T08:04:14.592Z,100816.40
2022-09-06T08:09:39.040Z,100804.20
2022-09-06T08:12:08.880Z,100800.60
2022-09-06T08:14:37.729Z,100790.20
2022-09-06T08:17:06.749Z,100791.40
2022-09-06T08:19:35.749Z,100791.60
2022-09-06T08:22:05.019Z,100795.00
2022-09-06T08:24:36.570Z,100795.20
2022-09-06T08:27:08.301Z,100795.60
2022-09-06T08:29:37.445Z,100788.00
2022-09-06T08:32:09.620Z,100786.00
2022-09-06T08:34:39.020Z,100786.20
2022-09-06T08:37:08.201Z,100784.40
2022-09-06T08:39:37.977Z,100783.40
2022-09-06T08:42:10.961Z,100780.00
2022-09-06T08:44:57.902Z,100781.20
2022-09-06T08:47:28.200Z,100775.00
2022-09-06T08:50:04.328Z,100775.00
2022-09-06T08:53:16.655Z,100776.80
2022-09-06T08:56:19.079Z,100777.60
2022-09-06T08:59:20.111Z,100774.60
2022-09-06T09:02:14.234Z,100766.20
2022-09-06T09:05:08.061Z,100770.40
2022-09-06T09:07:48.621Z,100771.60
2022-09-06T09:10:26.821Z,100770.00
2022-09-06T09:12:57.400Z,100772.80
2022-09-06T09:15:26.890Z,100772.80
2022-09-06T09:17:56.821Z,100775.20
2022-09-06T09:20:28.640Z,100772.80
2022-09-06T09:22:59.840Z,100776.20
2022-09-06T09:25:34.982Z,100782.00
2022-09-06T09:28:05.041Z,100784.60
2022-09-06T09:30:55.529Z,100778.60
2022-09-06T09:33:37.988Z,100780.40
2022-09-06T09:36:14.600Z,100776.40
2022-09-06T09:38:49.919Z,100774.80
2022-09-06T09:41:52.600Z,100776.60
2022-09-06T09:44:25.259Z,100775.20
2022-09-06T09:46:55.567Z,100775.40
2022-09-06T09:49:30.319Z,100773.60
2022-09-06T09:52:32.923Z,100764.00
2022-09-06T09:55:05.960Z,100754.00
2022-09-06T09:57:50.380Z,100748.40
2022-09-06T10:00:43.648Z,100750.20
2022-09-06T10:03:23.909Z,100740.20
2022-09-06T10:06:04.056Z,100743.20
2022-09-06T10:08:35.401Z,100745.20
2022-09-06T10:11:05.660Z,100742.60
2022-09-06T10:13:37.439Z,100743.00
2022-09-06T10:16:08.294Z,100735.60
2022-09-06T10:18:44.940Z,100726.60
2022-09-06T10:21:24.179Z,100715.80
2022-09-06T10:27:02.800Z,100707.80
2022-09-06T10:29:45.982Z,100710.00
2022-09-06T10:32:52.740Z,100711.40
2022-09-06T10:35:38.444Z,100716.60
2022-09-06T10:38:43.680Z,100715.20
2022-09-06T10:41:44.769Z,100706.40
2022-09-06T10:44:49.660Z,100694.80
2022-09-06T10:47:21.111Z,100690.80
2022-09-06T10:50:03.641Z,100686.80
2022-09-06T10:52:44.360Z,100687.80
2022-09-06T10:55:18.863Z,100690.60
2022-09-06T11:00:50.167Z,100694.80
2022-09-06T11:06:36.050Z,100709.00
2022-09-06T11:09:35.902Z,100699.20
2022-09-06T11:12:22.369Z,100699.80
2022-09-06T11:14:55.521Z,100702.20
2022-09-06T11:17:41.659Z,100700.00
2022-09-06T11:20:45.821Z,100702.80
2022-09-06T11:23:51.261Z,100697.80
2022-09-06T11:26:44.773Z,100694.80
2022-09-06T11:29:24.730Z,100691.40
2022-09-06T11:32:20.062Z,100692.20
2022-09-06T11:35:04.012Z,100687.60
2022-09-06T11:37:43.729Z,100685.60
2022-09-06T11:43:00.000Z,100681.80
2022-09-06T11:45:48.280Z,100675.80
2022-09-06T11:48:35.559Z,100674.80
2022-09-06T11:51:11.522Z,100676.80
2022-09-06T11:53:50.230Z,100673.40
2022-09-06T11:56:32.747Z,100675.20
2022-09-06T11:59:20.879Z,100673.60
2022-09-06T12:02:28.255Z,100670.60
2022-09-06T12:05:00.849Z,100665.00
2022-09-06T12:07:32.591Z,100664.80
2022-09-06T12:10:32.339Z,100665.40
2022-09-06T12:13:01.619Z,100657.00
2022-09-06T12:15:52.311Z,100659.20
2022-09-06T12:18:48.758Z,100664.80
2022-09-06T12:21:53.000Z,100668.80
2022-09-06T12:24:47.605Z,100665.20
2022-09-06T12:27:17.823Z,100659.00
2022-09-06T12:29:59.791Z,100656.80
2022-09-06T12:32:46.103Z,100661.80
2022-09-06T12:38:17.587Z,100652.60
2022-09-06T12:40:52.505Z,100646.60
2022-09-06T12:43:21.505Z,100646.20
2022-09-06T12:45:53.288Z,100649.80
2022-09-06T12:48:42.013Z,100642.80
2022-09-06T12:51:21.476Z,100647.00
2022-09-06T12:54:29.783Z,100633.60
2022-09-06T12:57:24.026Z,100630.60
2022-09-06T12:59:58.003Z,100623.60
2022-09-06T13:02:43.504Z,100620.60
2022-09-06T13:05:14.133Z,100614.20
2022-09-06T13:07:52.903Z,100608.80
2022-09-06T13:10:26.723Z,100606.20
2022-09-06T13:12:59.341Z,100600.60
2022-09-06T13:15:33.885Z,100595.20
2022-09-06T13:18:27.487Z,100594.20
2022-09-06T13:21:19.633Z,100588.80
2022-09-06T13:23:53.544Z,100585.60
2022-09-06T13:26:41.782Z,100584.20
2022-09-06T13:29:25.531Z,100585.00
2022-09-06T13:31:57.557Z,100578.40
2022-09-06T13:34:37.232Z,100572.00
2022-09-06T13:37:11.342Z,100571.60
2022-09-06T13:39:45.818Z,100576.80
2022-09-06T13:42:29.570Z,100575.80
2022-09-06T13:45:20.485Z,100571.40
2022-09-06T13:47:49.826Z,100575.60
2022-09-06T13:50:18.600Z,100574.60
2022-09-06T13:52:47.484Z,100573.00
2022-09-06T13:55:20.825Z,100567.60
2022-09-06T13:57:49.604Z,100568.40
2022-09-06T14:00:18.584Z,100565.20
2022-09-06T14:02:50.471Z,100569.60
2022-09-06T14:05:19.214Z,100567.60
2022-09-06T14:07:48.824Z,100566.40
2022-09-06T14:10:19.548Z,100565.20
2022-09-06T14:12:48.445Z,100559.60
2022-09-06T14:15:17.744Z,100560.80
2022-09-06T14:17:47.124Z,100554.20
2022-09-06T14:20:16.054Z,100551.60
2022-09-06T14:22:44.827Z,100545.60
2022-09-06T14:25:13.939Z,100543.20
2022-09-06T14:27:42.946Z,100540.00
2022-09-06T14:30:13.443Z,100541.40
2022-09-06T14:32:42.455Z,100537.40
2022-09-06T14:35:11.242Z,100535.20
2022-09-06T14:37:40.456Z,100535.80
2022-09-06T14:40:11.188Z,100534.60
2022-09-06T14:42:40.184Z,100537.40
2022-09-06T14:45:10.304Z,100538.40
2022-09-06T14:47:39.285Z,100535.00
2022-09-06T14:50:09.263Z,100538.60
2022-09-06T14:52:38.284Z,100536.00
2022-09-06T14:55:07.839Z,100533.80
2022-09-06T14:57:37.627Z,100531.60
2022-09-06T15:00:11.260Z,100529.60
2022-09-06T15:02:40.247Z,100531.80
2022-09-06T15:05:10.052Z,100529.80
2022-09-06T15:07:39.131Z,100525.80
2022-09-06T15:10:08.624Z,100527.60
2022-09-06T15:12:38.026Z,100524.00
2022-09-06T15:15:07.643Z,100521.40
2022-09-06T15:17:37.540Z,100528.40
2022-09-06T15:20:07.665Z,100525.20
2022-09-06T15:22:37.184Z,100523.60
2022-09-06T15:25:06.839Z,100526.80
2022-09-06T15:27:35.760Z,100520.00
2022-09-06T15:30:05.084Z,100518.20
2022-09-06T15:32:33.966Z,100511.00
2022-09-06T15:35:04.799Z,100515.40
2022-09-06T15:37:33.906Z,100504.00
2022-09-06T15:40:03.200Z,100502.00
2022-09-06T15:42:32.504Z,100496.80
2022-09-06T15:45:01.304Z,100496.40
2022-09-06T15:47:30.690Z,100492.60
2022-09-06T15:49:59.484Z,100490.80
2022-09-06T15:52:28.587Z,100496.60
2022-09-06T15:55:16.327Z,100498.80
2022-09-06T15:57:45.201Z,100496.00
2022-09-06T16:00:17.687Z,100496.60
2022-09-06T16:02:46.826Z,100500.00
2022-09-06T16:05:16.257Z,100500.80
2022-09-06T16:07:45.268Z,100500.80
2022-09-06T16:10:14.585Z,100494.20
2022-09-06T16:12:45.453Z,100490.20
2022-09-06T16:15:16.541Z,100487.40
2022-09-06T16:17:45.566Z,100481.80
2022-09-06T16:20:15.754Z,100479.80
2022-09-06T16:22:44.965Z,100472.80
2022-09-06T16:25:13.666Z,100469.60
2022-09-06T16:27:42.564Z,100473.40
2022-09-06T16:30:12.165Z,100467.40
2022-09-06T16:32:41.241Z,100459.20
2022-09-06T16:35:10.720Z,100459.80
2022-09-06T16:37:39.765Z,100455.20
2022-09-06T16:40:10.292Z,100459.40
2022-09-06T16:42:39.203Z,100460.00
2022-09-06T16:45:08.765Z,100459.00
2022-09-06T16:47:37.687Z,100453.80
2022-09-06T16:50:07.205Z,100451.60
2022-09-06T16:52:35.862Z,100448.00
2022-09-06T16:55:05.406Z,100447.80
2022-09-06T16:57:34.585Z,100447.00
2022-09-06T17:00:05.266Z,100444.80
2022-09-06T17:02:34.557Z,100445.00
2022-09-06T17:05:04.601Z,100436.40
2022-09-06T17:07:33.641Z,100440.00
2022-09-06T17:10:02.804Z,100447.20
2022-09-06T17:12:33.060Z,100443.60
2022-09-06T17:15:02.404Z,100439.80
2022-09-06T17:17:31.316Z,100443.00
2022-09-06T17:20:00.330Z,100447.00
2022-09-06T17:22:29.946Z,100449.20
2022-09-06T17:24:58.840Z,100449.00
2022-09-06T17:27:27.924Z,100444.60
2022-09-06T17:29:56.829Z,100444.60
2022-09-06T17:32:26.106Z,100447.00
2022-09-06T17:34:55.325Z,100452.20
2022-09-06T17:37:24.406Z,100455.20
2022-09-06T17:39:53.344Z,100457.00
2022-09-06T17:42:22.314Z,100457.80
2022-09-06T17:44:51.520Z,100462.40
2022-09-06T17:47:20.598Z,100465.80
2022-09-06T17:49:49.422Z,100469.20
2022-09-06T17:52:18.747Z,100476.60
2022-09-06T17:54:48.064Z,100476.20
2022-09-06T17:57:16.965Z,100478.80
2022-09-06T17:59:45.852Z,100478.60
2022-09-06T18:02:14.565Z,100486.20
2022-09-06T18:04:43.686Z,100485.00
2022-09-06T18:07:12.544Z,100488.20
2022-09-06T18:09:42.344Z,100486.00
2022-09-06T18:12:11.766Z,100483.60
2022-09-06T18:14:40.644Z,100483.40
2022-09-06T18:17:09.744Z,100480.80
2022-09-06T18:19:38.944Z,100481.80
2022-09-06T18:22:08.044Z,100481.80
2022-09-06T18:24:37.012Z,100477.00
2022-09-06T18:27:06.044Z,100475.80
2022-09-06T18:29:35.104Z,100472.20
2022-09-06T18:32:04.857Z,100469.80
2022-09-06T18:34:33.965Z,100468.60
2022-09-06T18:37:02.952Z,100468.60
2022-09-06T18:39:33.702Z,100466.80
2022-09-06T18:42:08.386Z,100464.20
2022-09-06T18:44:39.283Z,100465.60
2022-09-06T18:47:10.653Z,100471.80
2022-09-06T18:49:43.974Z,100472.80
2022-09-06T18:52:13.490Z,100472.00
2022-09-06T18:54:44.103Z,100474.20
2022-09-06T18:57:13.093Z,100471.60
2022-09-06T18:59:42.124Z,100467.80
2022-09-06T19:02:11.775Z,100475.40
2022-09-06T19:04:40.885Z,100482.20
2022-09-06T19:07:09.974Z,100482.40
2022-09-06T19:09:38.884Z,100486.20
2022-09-06T19:12:08.025Z,100484.00
2022-09-06T19:14:37.084Z,100483.60
2022-09-06T19:17:06.263Z,100482.20
2022-09-06T19:19:35.364Z,100482.60
2022-09-06T19:22:04.884Z,100480.40
2022-09-06T19:24:34.184Z,100480.80
2022-09-06T19:27:03.391Z,100476.40
2022-09-06T19:29:32.687Z,100477.00
2022-09-06T19:32:01.629Z,100476.40
2022-09-06T19:34:30.484Z,100473.60
2022-09-06T19:36:59.549Z,100469.00
2022-09-06T19:39:36.265Z,100470.60
2022-09-06T19:42:06.966Z,100467.60
2022-09-06T19:44:35.964Z,100458.60
2022-09-06T19:47:05.354Z,100453.60
2022-09-06T19:49:34.346Z,100447.80
2022-09-06T19:52:10.165Z,100445.80
2022-09-06T19:54:40.025Z,100440.40
2022-09-06T19:57:09.104Z,100440.20
2022-09-06T19:59:39.951Z,100441.40
2022-09-06T20:02:09.784Z,100436.20
2022-09-06T20:04:38.648Z,100432.20
2022-09-06T20:07:07.551Z,100435.40
2022-09-06T20:09:36.634Z,100430.60
2022-09-06T20:12:06.192Z,100433.40
2022-09-06T20:14:35.026Z,100433.60
2022-09-06T20:17:29.703Z,100437.80
2022-09-06T20:19:54.331Z,100440.20
2022-09-06T20:22:23.232Z,100434.20
2022-09-06T20:24:52.113Z,100435.60
2022-09-06T20:27:22.573Z,100431.40
2022-09-06T20:29:51.332Z,100427.20
2022-09-06T20:32:20.435Z,100426.60
2022-09-06T20:34:49.514Z,100422.60
2022-09-06T20:37:18.326Z,100428.40
2022-09-06T20:39:47.148Z,100434.60
2022-09-06T20:42:16.192Z,100437.20
2022-09-06T20:44:45.406Z,100435.00
2022-09-06T20:47:14.388Z,100432.40
2022-09-06T20:49:43.272Z,100422.60
2022-09-06T20:52:12.157Z,100426.20
2022-09-06T20:54:41.672Z,100424.40
2022-09-06T20:57:10.864Z,100425.00
2022-09-06T20:59:39.977Z,100428.00
2022-09-06T21:02:08.875Z,100429.00
2022-09-06T21:04:37.753Z,100435.00
2022-09-06T21:07:07.472Z,100433.40
2022-09-06T21:09:36.451Z,100430.60
2022-09-06T21:12:05.654Z,100426.60
2022-09-06T21:14:34.534Z,100425.20
2022-09-06T21:17:03.433Z,100429.40
2022-09-06T21:19:32.432Z,100432.20
2022-09-06T21:22:01.313Z,100428.80
2022-09-06T21:24:30.213Z,100429.80
2022-09-06T21:26:58.983Z,100421.80
2022-09-06T21:29:27.800Z,100425.20
2022-09-06T21:31:56.916Z,100422.80
2022-09-06T21:34:26.192Z,100424.60
2022-09-06T21:36:55.072Z,100422.40
2022-09-06T21:39:24.072Z,100419.60
2022-09-06T21:41:53.175Z,100415.80
2022-09-06T21:44:22.374Z,100416.80
2022-09-06T21:46:51.226Z,100412.00
2022-09-06T21:49:20.035Z,100413.20
2022-09-06T21:51:49.032Z,100412.20
2022-09-06T21:54:18.033Z,100412.60
2022-09-06T21:56:47.242Z,100411.00
